world map with RCM marked

RCM - Airport

This information may not be accurate or current and is not valid for navigation or flight planning. No warranty of fitness for any purpose is made or implied.

flag of Queenslandflag of Australia

Donate via PayPal

Additional information is available on the NEW Great Circle Mapper

Location
City:  Richmond, Queensland, Australia
ICAO / IATA:YRMD / RCM

Details
Type:Airport (Aerodrome, Airfield)
Latitude:20°42'07"S (-20.701943)
Longitude:143°06'53"E (143.114722)
Datum:WGS 1984
Elevation:676 ft (206 m)
Runways:1
Longest:5000 × 98 ft (1524 × 30 m)

Time
Timezone:UTC+10 (DST+12)
Local Time:

Weather
METAR:YRMD  221900Z AUTO 08008KT 9999 // NCD 20/M01 Q1009

Related Locations
Nearby:
Farthest:NTO: 11639 mi / 18730 km
Ponta do Sol [Agostinho Neto], Ribeira Grande, Santo Antão, CV

Find:

   beyond  
but within

Other Information
Maps:
Sources:

  


 


Great Circle Mapper   Great Circle Mapper
Great Circle Mapper FAQ   Great Circle Mapper FAQ
  Karl's Home Page
KLSē   KLSē Home
   GC on Facebook
Airlines of the World   Airlines of the World
Donate via PayPal


Copyright © 2004-2018, Karl L. Swartz. All rights reserved.
All trademarks mentioned herein belong to their respective owners.

Please see credits for attribution and copyright information.

Karl Swartz <karl@kls2.com>
  Powered by FreeBSD
Valid HTML 4.01!
Labeled with ICRA
hCard Microformat
Geo Microformat